createdAt,value
2023-05-12T00:00:19.833Z,8.50
2023-05-12T00:03:07.431Z,10.20
2023-05-12T00:05:35.021Z,5.93
2023-05-12T00:08:02.287Z,7.68
2023-05-12T00:10:29.953Z,5.22
2023-05-12T00:12:57.369Z,6.80
2023-05-12T00:15:25.187Z,5.97
2023-05-12T00:17:52.561Z,8.57
2023-05-12T00:20:20.500Z,6.90
2023-05-12T00:22:48.047Z,5.57
2023-05-12T00:25:16.284Z,6.47
2023-05-12T00:27:44.122Z,7.93
2023-05-12T00:30:11.921Z,7.05
2023-05-12T00:32:39.241Z,6.28
2023-05-12T00:35:07.219Z,8.07
2023-05-12T00:37:34.432Z,8.65
2023-05-12T00:40:02.004Z,7.38
2023-05-12T00:42:29.235Z,9.98
2023-05-12T00:44:56.738Z,7.20
2023-05-12T00:47:24.326Z,7.78
2023-05-12T00:49:51.869Z,8.20
2023-05-12T00:52:19.981Z,6.20
2023-05-12T00:54:48.698Z,9.50
2023-05-12T00:57:16.407Z,6.60
2023-05-12T00:59:43.915Z,5.40
2023-05-12T01:02:11.437Z,7.78
2023-05-12T01:04:39.932Z,7.32
2023-05-12T01:07:12.802Z,10.02
2023-05-12T01:09:40.400Z,6.10
2023-05-12T01:12:07.819Z,9.65
2023-05-12T01:14:35.848Z,6.80
2023-05-12T01:17:07.978Z,7.50
2023-05-12T01:19:46.108Z,5.55
2023-05-12T01:22:14.374Z,7.95
2023-05-12T01:24:55.947Z,6.32
2023-05-12T01:27:26.232Z,5.53
2023-05-12T01:29:56.315Z,5.88
2023-05-12T01:32:23.746Z,6.55
2023-05-12T01:34:51.347Z,5.65
2023-05-12T01:37:18.825Z,7.05
2023-05-12T01:39:46.379Z,7.55
2023-05-12T01:42:13.988Z,5.68
2023-05-12T01:44:41.736Z,7.10
2023-05-12T01:47:11.149Z,6.53
2023-05-12T01:49:38.659Z,6.22
2023-05-12T01:52:06.402Z,6.80
2023-05-12T01:54:33.897Z,8.80
2023-05-12T01:57:01.138Z,8.13
2023-05-12T01:59:28.684Z,6.82
2023-05-12T02:01:56.005Z,8.52
2023-05-12T02:04:23.630Z,6.55
2023-05-12T02:06:51.875Z,6.85
2023-05-12T02:09:19.447Z,5.10
2023-05-12T02:11:46.677Z,7.85
2023-05-12T02:14:14.782Z,6.22
2023-05-12T02:16:42.068Z,6.93
2023-05-12T02:19:09.697Z,6.53
2023-05-12T02:21:36.980Z,8.82
2023-05-12T02:24:04.635Z,6.05
2023-05-12T02:26:31.929Z,5.35
2023-05-12T02:28:59.515Z,8.05
2023-05-12T02:31:26.717Z,9.57
2023-05-12T02:33:54.322Z,6.18
2023-05-12T02:36:21.660Z,6.63
2023-05-12T02:38:49.139Z,8.38
2023-05-12T02:41:16.601Z,6.53
2023-05-12T02:43:44.174Z,9.20
2023-05-12T02:46:11.452Z,6.53
2023-05-12T02:48:39.003Z,6.97
2023-05-12T02:51:06.390Z,7.82
2023-05-12T02:53:33.861Z,9.32
2023-05-12T02:56:01.354Z,5.72
2023-05-12T02:58:28.868Z,7.95
2023-05-12T03:01:06.656Z,7.00
2023-05-12T03:03:37.397Z,6.82
2023-05-12T03:06:06.049Z,10.10
2023-05-12T03:08:33.607Z,5.82
2023-05-12T03:11:00.856Z,6.88
2023-05-12T03:13:28.370Z,8.80
2023-05-12T03:15:57.095Z,7.15
2023-05-12T03:18:24.685Z,6.30
2023-05-12T03:20:52.045Z,7.85
2023-05-12T03:23:19.527Z,10.10
2023-05-12T03:25:46.788Z,7.82
2023-05-12T03:28:14.385Z,7.30
2023-05-12T03:30:41.634Z,7.00
2023-05-12T03:33:09.243Z,7.25
2023-05-12T03:35:36.514Z,6.35
2023-05-12T03:38:04.036Z,7.85
2023-05-12T03:40:31.532Z,7.43
2023-05-12T03:42:59.318Z,6.05
2023-05-12T03:45:26.825Z,7.35
2023-05-12T03:47:54.412Z,5.70
2023-05-12T03:50:22.308Z,7.63
2023-05-12T03:52:49.914Z,5.25
2023-05-12T03:55:17.589Z,6.63
2023-05-12T03:57:46.266Z,7.35
2023-05-12T04:00:14.089Z,7.13
2023-05-12T04:02:42.216Z,6.57
2023-05-12T04:05:10.126Z,6.10
2023-05-12T04:07:38.221Z,7.30
2023-05-12T04:10:05.974Z,6.15
2023-05-12T04:12:34.398Z,6.13
2023-05-12T04:15:02.138Z,5.22
2023-05-12T04:17:29.991Z,7.28
2023-05-12T04:19:57.237Z,7.22
2023-05-12T04:22:25.781Z,7.82
2023-05-12T04:24:53.277Z,5.10
2023-05-12T04:27:21.337Z,8.30
2023-05-12T04:29:48.542Z,7.53
2023-05-12T04:32:16.238Z,6.18
2023-05-12T04:34:43.677Z,7.28
2023-05-12T04:37:11.162Z,6.00
2023-05-12T04:39:39.940Z,5.90
2023-05-12T04:42:07.484Z,5.93
2023-05-12T04:44:34.752Z,6.90
2023-05-12T04:47:02.294Z,5.97
2023-05-12T04:49:29.657Z,6.55
2023-05-12T04:51:57.408Z,5.57
2023-05-12T04:54:25.474Z,8.18
2023-05-12T04:56:52.977Z,4.75
2023-05-12T04:59:20.165Z,6.88
2023-05-12T05:01:47.786Z,8.68
2023-05-12T05:04:15.786Z,5.35
2023-05-12T05:06:43.355Z,8.73
2023-05-12T05:09:10.763Z,6.90
2023-05-12T05:11:38.265Z,8.00
2023-05-12T05:14:05.605Z,5.15
2023-05-12T05:16:33.169Z,7.57
2023-05-12T05:19:03.809Z,7.30
2023-05-12T05:21:34.564Z,7.45
2023-05-12T05:24:01.946Z,10.05
2023-05-12T05:26:29.570Z,6.38
2023-05-12T05:28:56.902Z,5.93
2023-05-12T05:31:24.475Z,4.50
2023-05-12T05:33:51.766Z,5.70
2023-05-12T05:36:19.370Z,6.43
2023-05-12T05:38:46.787Z,5.93
2023-05-12T05:41:14.332Z,8.65
2023-05-12T05:43:41.614Z,6.05
2023-05-12T05:46:09.125Z,7.43
2023-05-12T05:48:39.399Z,4.45
2023-05-12T05:51:07.014Z,6.55
2023-05-12T05:53:34.238Z,5.55
2023-05-12T05:56:01.899Z,7.28
2023-05-12T05:58:29.308Z,7.90
2023-05-12T06:00:57.388Z,7.57
2023-05-12T06:03:24.740Z,6.00
2023-05-12T06:05:52.736Z,8.00
2023-05-12T06:08:19.974Z,5.60
2023-05-12T06:10:47.507Z,4.65
2023-05-12T06:13:14.757Z,7.45
2023-05-12T06:15:42.292Z,6.00
2023-05-12T06:18:09.635Z,6.10
2023-05-12T06:20:37.186Z,6.60
2023-05-12T06:23:04.623Z,5.32
2023-05-12T06:25:33.275Z,5.07
2023-05-12T06:28:00.515Z,8.48
2023-05-12T06:30:28.113Z,7.47
2023-05-12T06:32:56.042Z,5.55
2023-05-12T06:35:23.609Z,7.28
2023-05-12T06:37:51.002Z,7.70
2023-05-12T06:40:19.293Z,5.22
2023-05-12T06:42:46.539Z,6.28
2023-05-12T06:45:14.072Z,5.85
2023-05-12T06:47:41.468Z,5.43
2023-05-12T06:50:09.237Z,7.22
2023-05-12T06:52:37.427Z,8.05
2023-05-12T06:55:05.798Z,7.38
2023-05-12T06:57:33.049Z,6.30
2023-05-12T07:00:02.908Z,6.72
2023-05-12T07:02:30.775Z,5.18
2023-05-12T07:04:58.434Z,6.47
2023-05-12T07:07:25.780Z,5.40
2023-05-12T07:09:53.340Z,5.45
2023-05-12T07:12:20.624Z,6.57
2023-05-12T07:14:48.142Z,6.20
2023-05-12T07:17:15.322Z,7.93
2023-05-12T07:19:43.618Z,5.20
2023-05-12T07:22:10.982Z,6.38
2023-05-12T07:24:38.672Z,5.93
2023-05-12T07:27:06.215Z,8.20
2023-05-12T07:29:34.260Z,4.75
2023-05-12T07:32:01.812Z,4.72
2023-05-12T07:34:29.434Z,6.35
2023-05-12T07:36:56.855Z,5.13
2023-05-12T07:39:25.015Z,5.80
2023-05-12T07:41:54.015Z,8.98
2023-05-12T07:44:21.493Z,5.30
2023-05-12T07:46:48.753Z,5.70
2023-05-12T07:49:16.307Z,4.72
2023-05-12T07:51:44.022Z,6.72
2023-05-12T07:54:11.512Z,5.60
2023-05-12T07:56:38.745Z,5.00
2023-05-12T07:59:06.363Z,5.80
2023-05-12T08:01:34.884Z,4.30
2023-05-12T08:04:02.466Z,13.23
2023-05-12T08:06:29.960Z,7.38
2023-05-12T08:08:58.357Z,12.55
2023-05-12T08:11:26.477Z,9.63
2023-05-12T08:13:54.011Z,9.32
2023-05-12T08:16:21.321Z,10.70
2023-05-12T08:18:48.921Z,6.57
2023-05-12T08:21:16.288Z,10.55
2023-05-12T08:23:44.784Z,6.47
2023-05-12T08:26:12.097Z,8.02
2023-05-12T08:28:40.053Z,7.82
2023-05-12T08:31:07.464Z,10.10
2023-05-12T08:33:36.192Z,12.23
2023-05-12T08:36:03.764Z,6.28
2023-05-12T08:38:32.319Z,8.70
2023-05-12T08:41:05.611Z,11.05
2023-05-12T08:43:52.948Z,10.50
2023-05-12T08:46:21.719Z,8.30
2023-05-12T08:48:52.122Z,8.77
2023-05-12T08:51:20.906Z,13.38
2023-05-12T08:53:50.146Z,8.00
2023-05-12T08:58:50.625Z,9.30
2023-05-12T09:01:18.500Z,12.25
2023-05-12T09:03:46.553Z,11.98
2023-05-12T09:06:14.515Z,14.68
2023-05-12T09:08:42.610Z,13.13
2023-05-12T09:11:12.634Z,15.00
2023-05-12T09:13:48.101Z,13.25
2023-05-12T09:16:22.423Z,13.10
2023-05-12T09:18:56.786Z,9.20
2023-05-12T09:24:00.706Z,13.98
2023-05-12T09:26:28.997Z,18.67
2023-05-12T09:29:08.925Z,23.42
2023-05-12T09:31:36.536Z,15.73
2023-05-12T09:34:10.617Z,18.85
2023-05-12T09:36:37.895Z,12.95
2023-05-12T09:39:07.205Z,19.55
2023-05-12T09:41:41.080Z,19.88
2023-05-12T09:44:10.280Z,24.50
2023-05-12T09:46:39.725Z,19.40
2023-05-12T09:49:07.834Z,22.90
2023-05-12T09:51:35.027Z,19.20
2023-05-12T09:54:02.647Z,18.75
2023-05-12T09:56:32.305Z,17.35
2023-05-12T09:59:03.955Z,17.30
2023-05-12T10:01:31.444Z,13.82
2023-05-12T10:03:59.403Z,16.23
2023-05-12T10:06:30.700Z,13.05
2023-05-12T10:09:19.541Z,10.52
2023-05-12T10:11:47.392Z,13.52
2023-05-12T10:14:16.551Z,12.82
2023-05-12T10:16:46.476Z,19.23
2023-05-12T10:19:14.551Z,15.02
2023-05-12T10:21:46.238Z,15.32
2023-05-12T10:24:16.208Z,15.05
2023-05-12T10:26:44.691Z,13.88
2023-05-12T10:29:13.792Z,10.60
2023-05-12T10:31:43.895Z,8.73
2023-05-12T10:34:17.741Z,10.32
2023-05-12T10:36:50.168Z,14.15
2023-05-12T10:39:17.793Z,17.00
2023-05-12T10:41:45.088Z,9.27
2023-05-12T10:44:13.421Z,10.00
2023-05-12T10:46:42.156Z,11.13
2023-05-12T10:49:12.874Z,9.95
2023-05-12T10:51:43.174Z,8.65
2023-05-12T10:54:13.022Z,11.77
2023-05-12T10:56:42.947Z,6.78
2023-05-12T10:59:19.270Z,10.75
2023-05-12T11:02:00.257Z,9.35
2023-05-12T11:04:46.931Z,8.30
2023-05-12T11:07:20.390Z,11.20
2023-05-12T11:09:57.605Z,11.15
2023-05-12T11:12:33.957Z,9.68
2023-05-12T11:15:02.691Z,5.93
2023-05-12T11:17:29.976Z,7.25
2023-05-12T11:19:58.158Z,7.78
2023-05-12T11:22:25.870Z,5.35
2023-05-12T11:24:53.485Z,14.35
2023-05-12T11:27:22.821Z,18.92
2023-05-12T11:30:04.207Z,20.83
2023-05-12T11:32:31.646Z,20.65
2023-05-12T11:35:29.596Z,29.33
2023-05-12T11:37:56.831Z,20.38
2023-05-12T11:40:24.295Z,17.70
2023-05-12T11:42:53.167Z,18.10
2023-05-12T11:45:29.265Z,13.10
2023-05-12T11:48:11.444Z,12.30
2023-05-12T11:50:44.472Z,14.27
2023-05-12T11:53:14.651Z,9.60
2023-05-12T11:55:52.809Z,9.25
2023-05-12T11:58:26.797Z,14.73
2023-05-12T12:00:55.136Z,9.75
2023-05-12T12:03:22.873Z,10.65
2023-05-12T12:06:04.330Z,6.70
2023-05-12T12:08:31.817Z,15.35
2023-05-12T12:11:00.916Z,9.27
2023-05-12T12:13:30.211Z,7.93
2023-05-12T12:15:57.797Z,10.13
2023-05-12T12:18:25.237Z,11.77
2023-05-12T12:20:52.803Z,7.15
2023-05-12T12:23:20.349Z,6.68
2023-05-12T12:25:47.896Z,10.00
2023-05-12T12:28:15.133Z,8.02
2023-05-12T12:30:42.871Z,4.82
2023-05-12T12:33:10.221Z,9.18
2023-05-12T12:35:37.852Z,8.20
2023-05-12T12:38:05.103Z,10.65
2023-05-12T12:40:32.662Z,7.18
2023-05-12T12:43:00.326Z,5.85
2023-05-12T12:45:27.938Z,6.35
2023-05-12T12:47:55.408Z,6.68
2023-05-12T12:50:25.048Z,10.50
2023-05-12T12:52:53.898Z,4.32
2023-05-12T12:55:21.837Z,5.40
2023-05-12T12:57:49.295Z,4.03
2023-05-12T13:00:17.639Z,4.40
2023-05-12T13:02:45.584Z,5.75
2023-05-12T13:05:13.245Z,4.75
2023-05-12T13:07:40.488Z,4.90
2023-05-12T13:10:09.512Z,6.20
2023-05-12T13:12:36.869Z,6.60
2023-05-12T13:15:04.752Z,6.00
2023-05-12T13:17:32.069Z,5.75
2023-05-12T13:19:59.602Z,9.35
2023-05-12T13:22:28.854Z,4.55
2023-05-12T13:24:56.579Z,5.47
2023-05-12T13:27:23.946Z,4.15
2023-05-12T13:29:51.899Z,4.22
2023-05-12T13:32:20.639Z,3.80
2023-05-12T13:34:48.176Z,9.25
2023-05-12T13:37:15.795Z,8.25
2023-05-12T13:39:43.299Z,5.07
2023-05-12T13:42:10.572Z,4.35
2023-05-12T13:44:38.042Z,5.88
2023-05-12T13:47:07.891Z,4.72
2023-05-12T13:49:35.892Z,4.72
2023-05-12T13:52:03.630Z,3.00
2023-05-12T13:54:31.829Z,5.05
2023-05-12T13:56:59.169Z,7.03
2023-05-12T13:59:26.661Z,4.88
2023-05-12T14:01:54.043Z,7.43
2023-05-12T14:04:21.709Z,6.20
2023-05-12T14:06:49.203Z,3.53
2023-05-12T14:09:16.917Z,5.15
2023-05-12T14:11:44.254Z,5.28
2023-05-12T14:14:11.876Z,6.65
2023-05-12T14:16:39.250Z,4.00
2023-05-12T14:19:06.779Z,3.42
2023-05-12T14:21:34.081Z,5.10
2023-05-12T14:24:01.637Z,5.30
2023-05-12T14:26:28.901Z,4.43
2023-05-12T14:28:56.890Z,4.97
2023-05-12T14:31:24.270Z,5.22
2023-05-12T14:33:53.178Z,4.55
2023-05-12T14:36:21.774Z,6.18
2023-05-12T14:38:49.307Z,10.02
2023-05-12T14:41:16.568Z,5.15
2023-05-12T14:43:44.157Z,2.72
2023-05-12T14:46:12.064Z,4.60
2023-05-12T14:48:39.674Z,5.80
2023-05-12T14:51:06.982Z,5.60
2023-05-12T14:53:35.091Z,5.35
2023-05-12T14:56:02.323Z,4.78
2023-05-12T14:58:30.004Z,5.38
2023-05-12T15:00:57.296Z,4.65
2023-05-12T15:03:24.981Z,4.88
2023-05-12T15:06:05.786Z,5.03
2023-05-12T15:08:34.675Z,4.60
2023-05-12T15:11:01.982Z,2.28
2023-05-12T15:13:29.704Z,6.45
2023-05-12T15:15:57.177Z,6.13
2023-05-12T15:18:25.323Z,4.80
2023-05-12T15:20:52.632Z,3.22
2023-05-12T15:23:20.216Z,5.90
2023-05-12T15:25:47.864Z,3.97
2023-05-12T15:28:15.512Z,5.95
2023-05-12T15:30:42.761Z,4.07
2023-05-12T15:33:10.416Z,5.22
2023-05-12T15:35:40.673Z,4.80
2023-05-12T15:38:08.276Z,4.53
2023-05-12T15:40:35.540Z,5.35
2023-05-12T15:43:04.915Z,4.10
2023-05-12T15:45:32.208Z,3.63
2023-05-12T15:47:59.996Z,3.67
2023-05-12T15:50:27.323Z,3.75
2023-05-12T15:52:55.105Z,6.32
2023-05-12T15:55:22.721Z,6.47
2023-05-12T15:57:51.014Z,4.40
2023-05-12T16:00:19.418Z,3.17
2023-05-12T16:02:49.934Z,4.00
2023-05-12T16:05:17.978Z,5.13
2023-05-12T16:07:47.066Z,5.05
2023-05-12T16:10:15.886Z,5.78
2023-05-12T16:12:45.844Z,6.93
2023-05-12T16:15:14.092Z,4.05
2023-05-12T16:17:41.846Z,5.70
2023-05-12T16:20:10.327Z,4.63
2023-05-12T16:22:37.902Z,4.82
2023-05-12T16:25:05.575Z,6.13
2023-05-12T16:27:35.589Z,5.00
2023-05-12T16:30:03.779Z,5.78
2023-05-12T16:32:31.579Z,6.82
2023-05-12T16:34:58.855Z,8.65
2023-05-12T16:37:27.790Z,9.48
2023-05-12T16:39:55.090Z,7.63
2023-05-12T16:42:22.869Z,10.30
2023-05-12T16:44:53.283Z,12.10
2023-05-12T16:47:21.036Z,6.68
2023-05-12T16:49:53.316Z,7.88
2023-05-12T16:52:21.180Z,7.65
2023-05-12T16:54:48.394Z,8.48
2023-05-12T16:57:16.112Z,7.18
2023-05-12T16:59:43.333Z,6.80
2023-05-12T17:02:11.090Z,11.05
2023-05-12T17:04:38.526Z,4.07
2023-05-12T17:07:06.020Z,6.70
2023-05-12T17:09:33.301Z,7.13
2023-05-12T17:12:00.987Z,6.68
2023-05-12T17:14:28.306Z,7.72
2023-05-12T17:16:56.021Z,5.65
2023-05-12T17:19:23.615Z,6.38
2023-05-12T17:21:51.202Z,5.07
2023-05-12T17:24:18.630Z,6.50
2023-05-12T17:26:46.124Z,3.92
2023-05-12T17:29:13.963Z,5.25
2023-05-12T17:31:41.921Z,6.32
2023-05-12T17:34:09.260Z,4.70
2023-05-12T17:36:37.334Z,6.72
2023-05-12T17:39:05.066Z,4.68
2023-05-12T17:41:32.888Z,5.07
2023-05-12T17:44:00.117Z,7.22
2023-05-12T17:46:27.668Z,7.40
2023-05-12T17:48:54.967Z,6.18
2023-05-12T17:51:24.117Z,6.47
2023-05-12T17:53:51.377Z,8.43
2023-05-12T17:56:18.960Z,5.97
2023-05-12T17:58:46.623Z,5.90
2023-05-12T18:01:14.211Z,5.70
2023-05-12T18:03:42.250Z,6.13
2023-05-12T18:06:12.693Z,6.90
2023-05-12T18:08:40.136Z,7.57
2023-05-12T18:11:07.716Z,5.70
2023-05-12T18:13:34.999Z,5.13
2023-05-12T18:16:02.619Z,4.78
2023-05-12T18:18:30.085Z,5.43
2023-05-12T18:20:57.712Z,5.28
2023-05-12T18:23:24.972Z,6.43
2023-05-12T18:25:52.529Z,5.93
2023-05-12T18:28:19.780Z,5.65
2023-05-12T18:30:47.380Z,5.60
2023-05-12T18:33:14.695Z,9.52
2023-05-12T18:35:42.337Z,5.65
2023-05-12T18:38:09.586Z,5.30
2023-05-12T18:40:38.284Z,6.38
2023-05-12T18:43:05.893Z,5.78
2023-05-12T18:45:33.819Z,5.60
2023-05-12T18:48:01.397Z,5.95
2023-05-12T18:50:29.961Z,10.30
2023-05-12T18:52:57.501Z,9.23
2023-05-12T18:55:25.121Z,5.13
2023-05-12T18:57:52.482Z,5.20
2023-05-12T19:00:25.877Z,5.45
2023-05-12T19:02:53.438Z,7.63
2023-05-12T19:05:21.389Z,5.72
2023-05-12T19:07:49.190Z,7.13
2023-05-12T19:10:16.989Z,8.23
2023-05-12T19:12:44.375Z,4.82
2023-05-12T19:15:11.934Z,6.07
2023-05-12T19:17:39.431Z,6.93
2023-05-12T19:20:07.752Z,6.25
2023-05-12T19:22:35.599Z,4.97
2023-05-12T19:25:04.230Z,7.22
2023-05-12T19:27:31.524Z,5.45
2023-05-12T19:29:59.405Z,6.55
2023-05-12T19:32:26.778Z,8.70
2023-05-12T19:34:55.796Z,4.50
2023-05-12T19:37:23.211Z,5.47
2023-05-12T19:39:51.493Z,7.95
2023-05-12T19:42:19.040Z,6.05
2023-05-12T19:44:46.563Z,8.80
2023-05-12T19:47:14.326Z,11.00
2023-05-12T19:49:42.696Z,4.43
2023-05-12T19:52:10.251Z,7.05
2023-05-12T19:54:37.807Z,7.00
2023-05-12T19:57:05.177Z,9.32
2023-05-12T19:59:33.022Z,6.72
2023-05-12T20:02:00.345Z,10.68
2023-05-12T20:04:28.225Z,9.27
2023-05-12T20:06:55.697Z,8.07
2023-05-12T20:09:24.863Z,8.05
2023-05-12T20:11:52.949Z,7.80
2023-05-12T20:14:20.478Z,5.10
2023-05-12T20:16:47.819Z,5.80
2023-05-12T20:19:15.350Z,6.18
2023-05-12T20:21:43.143Z,7.78
2023-05-12T20:24:10.720Z,7.05
2023-05-12T20:26:38.589Z,7.30
2023-05-12T20:29:06.067Z,5.63
2023-05-12T20:31:33.505Z,8.88
2023-05-12T20:34:01.266Z,7.70
2023-05-12T20:36:28.605Z,7.93
2023-05-12T20:38:56.260Z,7.65
2023-05-12T20:41:23.566Z,5.53
2023-05-12T20:43:51.018Z,8.10
2023-05-12T20:46:18.387Z,8.20
2023-05-12T20:48:45.941Z,6.32
2023-05-12T20:51:13.497Z,7.75
2023-05-12T20:53:42.175Z,8.45
2023-05-12T20:56:10.469Z,9.10
2023-05-12T20:58:38.209Z,8.57
2023-05-12T21:01:05.480Z,6.60
2023-05-12T21:03:33.932Z,6.22
2023-05-12T21:06:01.639Z,5.45
2023-05-12T21:08:29.138Z,7.20
2023-05-12T21:10:58.001Z,6.20
2023-05-12T21:13:25.792Z,9.00
2023-05-12T21:15:53.104Z,6.30
2023-05-12T21:18:20.697Z,8.00
2023-05-12T21:20:47.980Z,6.72
2023-05-12T21:23:16.083Z,5.22
2023-05-12T21:25:43.542Z,8.25
2023-05-12T21:28:11.087Z,7.30
2023-05-12T21:30:38.468Z,5.15
2023-05-12T21:33:06.112Z,5.78
2023-05-12T21:35:33.395Z,6.00
2023-05-12T21:38:00.991Z,8.07
2023-05-12T21:40:29.117Z,7.22
2023-05-12T21:42:56.618Z,7.13
2023-05-12T21:45:24.011Z,7.47
2023-05-12T21:47:51.769Z,6.28
2023-05-12T21:50:21.561Z,6.78
2023-05-12T21:52:50.129Z,5.53
2023-05-12T21:55:17.507Z,10.10
2023-05-12T21:57:45.018Z,4.75
2023-05-12T22:00:14.526Z,6.15
2023-05-12T22:02:42.204Z,7.35
2023-05-12T22:05:09.702Z,7.22
2023-05-12T22:07:37.168Z,5.95
2023-05-12T22:10:05.035Z,7.22
2023-05-12T22:12:32.747Z,5.90
2023-05-12T22:15:00.000Z,7.68
2023-05-12T22:17:27.508Z,8.15
2023-05-12T22:19:54.807Z,7.90
2023-05-12T22:22:22.276Z,6.72
2023-05-12T22:24:49.515Z,6.72
2023-05-12T22:27:21.084Z,7.85
2023-05-12T22:29:48.599Z,10.77
2023-05-12T22:32:16.261Z,7.35
2023-05-12T22:34:43.520Z,8.10
2023-05-12T22:37:11.103Z,9.23
2023-05-12T22:39:38.462Z,8.18
2023-05-12T22:42:06.374Z,7.13
2023-05-12T22:44:33.611Z,5.80
2023-05-12T22:47:01.129Z,8.32
2023-05-12T22:49:28.379Z,6.20
2023-05-12T22:51:55.940Z,9.13
2023-05-12T22:54:23.217Z,6.50
2023-05-12T22:56:50.730Z,9.00
2023-05-12T22:59:18.020Z,9.10
2023-05-12T23:01:45.659Z,6.97
2023-05-12T23:04:13.437Z,7.28
2023-05-12T23:06:41.024Z,7.60
2023-05-12T23:09:12.435Z,9.50
2023-05-12T23:11:39.890Z,8.73
2023-05-12T23:14:08.892Z,7.45
2023-05-12T23:16:36.430Z,8.60
2023-05-12T23:19:04.204Z,6.53
2023-05-12T23:21:32.780Z,6.63
2023-05-12T23:24:00.018Z,5.13
2023-05-12T23:26:28.035Z,6.75
2023-05-12T23:28:55.464Z,6.32
2023-05-12T23:31:23.124Z,5.57
2023-05-12T23:33:50.530Z,9.00
2023-05-12T23:36:18.068Z,5.85
2023-05-12T23:38:45.301Z,5.70
2023-05-12T23:41:12.781Z,5.75
2023-05-12T23:43:40.536Z,7.60
2023-05-12T23:46:08.053Z,6.60
2023-05-12T23:48:37.241Z,6.55
2023-05-12T23:51:04.719Z,5.80
2023-05-12T23:53:32.086Z,6.13
2023-05-12T23:56:00.068Z,6.47
2023-05-12T23:58:27.424Z,6.93
